Time;durP1;ratioP1;P1;durP2;ratioP2;P2;SDS_P1;SDS_P2;PMS_P1;PMS_P2;Temp;Humidity;BMP_temperature;BMP_pressure;BME280_temperature;BME280_humidity;BME280_pressure;Samples;Min_cycle;Max_cycle;Signal;HPM_P1;HPM_P2
2023/04/26 00:01:04;;;;;;;9.75;4.28;;;;;;;4.56;71.92;101849.16;5002288;28;20037;-87
2023/04/26 00:03:30;;;;;;;7.43;3.83;;;;;;;4.68;72.15;101856.16;5018979;28;20112;-87
2023/04/26 00:05:55;;;;;;;8.65;3.45;;;;;;;4.68;71.59;101863.16;5007906;28;20057;-88
2023/04/26 00:08:20;;;;;;;9.45;4.07;;;;;;;4.67;71.18;101854.41;5000543;28;20057;-87
2023/04/26 00:10:45;;;;;;;10.27;4.13;;;;;;;4.65;71.93;101852.66;5023925;28;20156;-88
2023/04/26 00:13:11;;;;;;;7.65;4.15;;;;;;;4.74;71.43;101855.28;5029474;28;20079;-88
2023/04/26 00:15:36;;;;;;;8.57;4.13;;;;;;;4.78;71.53;101851.81;5011944;28;20033;-87
2023/04/26 00:18:02;;;;;;;8.32;4.03;;;;;;;4.83;71.55;101857.91;5024089;28;20037;-87
2023/04/26 00:20:27;;;;;;;8.38;4.10;;;;;;;4.78;71.25;101849.19;5015903;28;20359;-88
2023/04/26 00:22:52;;;;;;;7.57;4.00;;;;;;;4.77;72.06;101850.94;5021225;28;20029;-87
2023/04/26 00:25:18;;;;;;;11.40;3.70;;;;;;;4.75;71.93;101849.16;5028379;28;20436;-87
2023/04/26 00:27:43;;;;;;;7.82;4.35;;;;;;;4.81;73.51;101844.81;5006626;28;20033;-87
2023/04/26 00:30:10;;;;;;;10.25;4.03;;;;;;;4.82;72.65;101850.94;5020818;28;20026;-87
2023/04/26 00:32:35;;;;;;;8.35;4.32;;;;;;;4.77;71.04;101844.81;5018626;28;20044;-87
2023/04/26 00:35:03;;;;;;;8.13;4.43;;;;;;;4.78;70.81;101860.53;5030396;28;20025;-87
2023/04/26 00:37:28;;;;;;;7.15;4.15;;;;;;;4.75;71.35;101851.78;5025587;28;20064;-88
2023/04/26 00:39:53;;;;;;;8.50;3.90;;;;;;;4.66;71.48;101847.41;5031438;28;20069;-87
2023/04/26 00:42:19;;;;;;;6.72;3.95;;;;;;;4.53;70.88;101851.78;5026838;28;20748;-87
2023/04/26 00:44:44;;;;;;;5.57;3.50;;;;;;;4.34;71.14;101855.25;5031086;28;20033;-87
2023/04/26 00:47:09;;;;;;;8.82;4.05;;;;;;;4.08;72.61;101861.28;5015208;28;20036;-87
2023/04/26 00:49:35;;;;;;;11.65;4.38;;;;;;;4.00;72.96;101860.38;5007341;28;20104;-87
2023/04/26 00:52:01;;;;;;;7.82;3.60;;;;;;;4.05;72.91;101861.28;5027792;28;20087;-87
2023/04/26 00:54:27;;;;;;;5.97;3.90;;;;;;;4.09;72.61;101849.94;5025841;28;20025;-87
2023/04/26 00:56:53;;;;;;;6.78;3.88;;;;;;;4.24;72.53;101853.47;5025387;28;20290;-87
2023/04/26 00:59:19;;;;;;;8.55;3.83;;;;;;;4.25;72.52;101856.13;5027671;28;20041;-88
2023/04/26 01:01:45;;;;;;;8.52;3.97;;;;;;;4.23;72.90;101856.97;5028539;28;20128;-88
2023/04/26 01:04:11;;;;;;;16.45;5.00;;;;;;;4.25;72.81;101857.88;5020796;28;20536;-88
2023/04/26 01:06:38;;;;;;;14.55;4.32;;;;;;;4.13;72.19;101845.59;4998499;28;20055;-88
2023/04/26 01:09:07;;;;;;;10.13;4.53;;;;;;;4.01;72.51;101851.69;5024545;28;20087;-88
2023/04/26 01:11:34;;;;;;;12.32;4.32;;;;;;;3.73;72.97;101845.50;5025260;28;20018;-87
2023/04/26 01:14:01;;;;;;;10.77;3.67;;;;;;;3.72;73.63;101850.69;5020753;28;20465;-88
2023/04/26 01:16:27;;;;;;;10.10;3.92;;;;;;;3.82;73.82;101853.38;5018527;28;20052;-88
2023/04/26 01:18:53;;;;;;;8.68;4.03;;;;;;;3.88;73.30;101851.66;5022867;28;20029;-87
2023/04/26 01:21:23;;;;;;;5.22;3.55;;;;;;;3.98;72.51;101862.13;5008273;28;20040;-87
2023/04/26 01:23:48;;;;;;;7.07;4.05;;;;;;;4.04;71.75;101846.44;5025494;28;20486;-87
2023/04/26 01:26:14;;;;;;;8.65;4.00;;;;;;;4.15;74.12;101853.44;5021402;28;20437;-87
2023/04/26 01:28:40;;;;;;;6.72;3.88;;;;;;;4.17;74.27;101855.22;5025726;28;20029;-88
2023/04/26 01:31:05;;;;;;;7.75;3.67;;;;;;;4.11;72.38;101846.50;5023271;28;20118;-88
2023/04/26 01:33:30;;;;;;;6.00;3.55;;;;;;;4.11;74.46;101852.59;5014164;28;20022;-87
2023/04/26 01:35:56;;;;;;;6.63;4.40;;;;;;;4.01;71.50;101851.69;5023071;28;20504;-87
2023/04/26 01:38:21;;;;;;;8.18;4.50;;;;;;;3.75;72.22;101858.56;5022869;28;20030;-88
2023/04/26 01:40:46;;;;;;;7.75;4.50;;;;;;;3.48;73.67;101851.47;5002222;28;20413;-88
2023/04/26 01:43:12;;;;;;;7.93;4.35;;;;;;;3.49;73.54;101861.03;5026448;28;20025;-88
2023/04/26 01:45:37;;;;;;;10.65;4.55;;;;;;;3.61;73.13;101861.13;5024141;28;20116;-87
2023/04/26 01:48:02;;;;;;;9.77;4.85;;;;;;;3.48;73.25;101857.56;5025728;28;20459;-88
2023/04/26 01:50:28;;;;;;;9.50;4.00;;;;;;;3.41;73.87;101857.53;5020499;28;20029;-87
2023/04/26 01:52:53;;;;;;;9.73;3.75;;;;;;;3.45;73.89;101848.81;5011122;28;20036;-88
2023/04/26 01:55:18;;;;;;;8.32;4.57;;;;;;;3.60;73.70;101859.38;5008661;28;20520;-88
2023/04/26 01:57:43;;;;;;;7.22;4.45;;;;;;;3.52;72.99;101853.22;5007354;28;20030;-88
2023/04/26 02:00:10;;;;;;;8.35;4.15;;;;;;;3.47;73.50;101857.56;5010676;28;20388;-87
2023/04/26 02:02:35;;;;;;;8.57;4.43;;;;;;;3.33;73.99;101857.47;5015876;28;20043;-88
2023/04/26 02:05:00;;;;;;;11.27;4.30;;;;;;;3.22;73.98;101853.94;5019781;28;20033;-88
2023/04/26 02:07:26;;;;;;;23.95;4.93;;;;;;;3.16;74.68;101862.59;5030551;28;20028;-88
2023/04/26 02:09:51;;;;;;;8.18;3.83;;;;;;;3.22;74.52;101867.00;5004599;28;20026;-88
2023/04/26 02:12:16;;;;;;;9.68;4.43;;;;;;;3.35;74.42;101862.69;5005677;28;20033;-88
2023/04/26 02:14:42;;;;;;;7.88;4.45;;;;;;;3.42;73.71;101860.16;5003975;28;20029;-88
2023/04/26 02:17:07;;;;;;;8.70;4.28;;;;;;;3.49;73.47;101861.03;5010719;28;20057;-88
2023/04/26 02:19:33;;;;;;;10.23;4.00;;;;;;;3.58;72.89;101864.56;5028165;28;20033;-88
2023/04/26 02:21:58;;;;;;;10.57;4.10;;;;;;;3.64;72.23;101862.84;5026891;28;20027;-88
2023/04/26 02:24:24;;;;;;;7.28;4.18;;;;;;;3.57;72.77;101843.66;5004790;28;20036;-88
2023/04/26 02:26:51;;;;;;;6.43;4.03;;;;;;;3.58;73.08;101842.78;5008407;28;20049;-87
2023/04/26 02:29:16;;;;;;;11.18;4.57;;;;;;;3.50;73.26;101858.47;5006070;28;20025;-88
2023/04/26 02:31:41;;;;;;;10.55;4.20;;;;;;;3.21;73.34;101845.19;5002444;28;20491;-88
2023/04/26 02:34:07;;;;;;;9.65;4.50;;;;;;;3.11;73.58;101850.34;5020424;28;20033;-88
2023/04/26 02:36:32;;;;;;;8.88;4.72;;;;;;;3.03;74.30;101847.69;5018848;28;20024;-88
2023/04/26 02:38:58;;;;;;;7.30;4.13;;;;;;;3.11;74.13;101848.63;5018022;28;20113;-88
2023/04/26 02:41:24;;;;;;;11.48;4.70;;;;;;;3.17;74.06;101850.38;5024270;28;20037;-88
2023/04/26 02:43:50;;;;;;;9.23;4.32;;;;;;;3.17;74.43;101848.69;5008771;28;20043;-88
2023/04/26 02:46:16;;;;;;;7.25;4.53;;;;;;;3.01;73.76;101845.06;5003239;28;20519;-88
2023/04/26 02:48:41;;;;;;;12.88;4.63;;;;;;;2.91;74.24;101840.66;5022749;28;20120;-87
2023/04/26 02:51:06;;;;;;;9.30;4.63;;;;;;;2.91;74.31;101839.78;5023269;28;20385;-88
2023/04/26 02:53:31;;;;;;;9.00;4.57;;;;;;;3.01;74.57;101855.53;5019919;28;20025;-88
2023/04/26 02:55:57;;;;;;;8.23;4.53;;;;;;;2.97;74.29;101845.91;5004125;28;20496;-88
2023/04/26 02:58:22;;;;;;;6.53;4.05;;;;;;;2.90;74.66;101843.25;5025245;28;20026;-88
2023/04/26 03:00:48;;;;;;;12.65;4.63;;;;;;;2.95;74.77;101839.81;5022803;28;20109;-88
2023/04/26 03:03:14;;;;;;;10.75;4.90;;;;;;;2.90;74.24;101845.88;5023971;28;20057;-88
2023/04/26 03:05:40;;;;;;;8.38;4.22;;;;;;;2.70;74.91;101833.50;5015388;28;20080;-88
2023/04/26 03:08:06;;;;;;;11.80;5.00;;;;;;;2.76;74.20;101833.59;5025210;28;20492;-88
2023/04/26 03:10:31;;;;;;;9.52;4.35;;;;;;;2.74;74.31;101837.91;5005328;28;20105;-88
2023/04/26 03:12:56;;;;;;;8.40;4.57;;;;;;;2.79;73.84;101832.72;5032744;28;20025;-87
2023/04/26 03:15:22;;;;;;;6.60;3.80;;;;;;;2.86;73.44;101839.75;5021140;28;20025;-87
2023/04/26 03:17:47;;;;;;;9.77;4.88;;;;;;;2.76;74.38;101827.50;5003988;28;20042;-88
2023/04/26 03:20:13;;;;;;;9.13;4.50;;;;;;;2.86;74.19;101825.81;5007251;28;20041;-88
2023/04/26 03:22:38;;;;;;;8.45;4.68;;;;;;;2.76;74.38;101841.41;5006836;28;20031;-87
2023/04/26 03:25:04;;;;;;;8.65;4.32;;;;;;;2.73;74.38;101837.91;5025729;28;20503;-88
2023/04/26 03:27:29;;;;;;;7.45;3.78;;;;;;;2.66;74.44;101829.16;5006527;28;20071;-88
2023/04/26 03:29:55;;;;;;;8.02;4.30;;;;;;;2.73;74.04;101832.66;5021914;28;20021;-88
2023/04/26 03:32:20;;;;;;;8.95;4.75;;;;;;;2.78;74.64;101824.00;5026857;28;20064;-88
2023/04/26 03:34:47;;;;;;;8.18;4.55;;;;;;;2.74;74.35;101823.97;5028091;28;20366;-88
2023/04/26 03:37:13;;;;;;;9.45;5.07;;;;;;;2.70;74.47;101819.59;5012173;28;20025;-89
2023/04/26 03:39:38;;;;;;;11.43;4.63;;;;;;;2.80;74.49;101824.91;5019782;28;20017;-88
2023/04/26 03:42:03;;;;;;;8.93;4.90;;;;;;;2.78;74.44;101818.78;5032440;28;20365;-88
2023/04/26 03:44:29;;;;;;;9.68;4.50;;;;;;;2.81;74.42;101818.81;5030781;28;20036;-88
2023/04/26 03:46:55;;;;;;;10.70;4.90;;;;;;;2.83;76.16;101816.22;5027431;28;20018;-88
2023/04/26 03:49:20;;;;;;;7.60;4.88;;;;;;;2.78;73.78;101810.94;5023721;28;20026;-88
2023/04/26 03:51:46;;;;;;;10.77;4.82;;;;;;;2.81;73.42;101820.56;5003409;28;20034;-88
2023/04/26 03:54:11;;;;;;;11.35;5.13;;;;;;;2.77;73.78;101816.16;5018749;28;20025;-88
2023/04/26 03:56:37;;;;;;;8.48;4.38;;;;;;;2.73;73.41;101830.94;5024350;28;20038;-88
2023/04/26 03:59:02;;;;;;;9.20;5.10;;;;;;;2.52;74.27;101831.66;5024594;28;20053;-88
2023/04/26 04:01:28;;;;;;;15.95;5.40;;;;;;;2.48;74.95;101837.69;5003276;28;20060;-88
2023/04/26 04:03:53;;;;;;;12.63;5.35;;;;;;;2.64;74.18;101832.59;5027395;28;20137;-88
2023/04/26 04:06:18;;;;;;;14.55;6.00;;;;;;;2.64;74.67;101832.59;5027863;28;20055;-88
2023/04/26 04:08:44;;;;;;;13.30;5.45;;;;;;;2.63;75.46;101821.28;5004463;28;20075;-88
2023/04/26 04:11:09;;;;;;;13.35;5.70;;;;;;;2.65;74.59;101823.91;5009209;28;20761;-88
2023/04/26 04:13:34;;;;;;;8.27;4.60;;;;;;;2.70;73.82;101822.19;5011960;28;20021;-88
2023/04/26 04:16:00;;;;;;;13.10;6.05;;;;;;;2.79;73.76;101820.53;5025827;28;20095;-88
2023/04/26 04:18:25;;;;;;;10.02;5.82;;;;;;;2.89;73.59;101831.94;5001901;28;20472;-88
2023/04/26 04:20:50;;;;;;;11.43;5.68;;;;;;;2.85;73.54;101816.25;5002504;28;20030;-88
2023/04/26 04:23:16;;;;;;;13.60;5.65;;;;;;;2.83;73.71;101824.03;5027461;28;20103;-88
2023/04/26 04:25:42;;;;;;;11.55;5.82;;;;;;;2.83;73.90;101818.81;5021864;28;20025;-88
2023/04/26 04:28:08;;;;;;;12.80;6.22;;;;;;;2.77;74.39;101837.06;5028384;28;20494;-88
2023/04/26 04:30:34;;;;;;;12.85;5.82;;;;;;;2.64;74.91;101828.25;5010520;28;20023;-88
2023/04/26 04:32:59;;;;;;;13.07;5.32;;;;;;;2.75;74.27;101829.22;5027173;28;20520;-88
2023/04/26 04:35:32;;;;;;;12.07;6.28;;;;;;;2.67;74.73;101835.25;5036175;28;20048;-88
2023/04/26 04:37:57;;;;;;;14.35;6.00;;;;;;;2.70;74.74;101843.94;5002761;28;20038;-88
2023/04/26 04:40:23;;;;;;;14.82;5.78;;;;;;;2.89;73.28;101834.56;5023601;28;20021;-88
2023/04/26 04:42:49;;;;;;;12.18;5.03;;;;;;;2.99;73.18;101838.09;5031497;28;20515;-88
2023/04/26 04:45:16;;;;;;;13.82;5.93;;;;;;;3.00;73.47;101832.00;5024768;28;20018;-88
2023/04/26 04:47:42;;;;;;;11.15;6.90;;;;;;;3.05;73.84;101843.38;5010710;28;20033;-88
2023/04/26 04:50:07;;;;;;;13.50;6.85;;;;;;;3.04;73.50;101834.66;5012853;28;20028;-88
2023/04/26 04:52:33;;;;;;;11.30;5.90;;;;;;;3.05;72.87;101815.50;5027253;28;20123;-88
2023/04/26 04:54:59;;;;;;;9.65;5.88;;;;;;;3.22;72.61;101841.75;5012445;28;20033;-87
2023/04/26 04:57:25;;;;;;;11.45;5.72;;;;;;;3.16;73.60;101848.66;5004217;28;20084;-88
2023/04/26 04:59:50;;;;;;;12.35;5.55;;;;;;;3.07;73.81;101852.94;5010566;28;20022;-88
2023/04/26 05:02:16;;;;;;;13.77;5.35;;;;;;;3.06;73.50;101845.09;5026100;28;20029;-88
2023/04/26 05:04:41;;;;;;;12.05;6.07;;;;;;;3.26;73.39;101863.50;5008997;28;20034;-88
2023/04/26 05:07:06;;;;;;;10.32;5.72;;;;;;;3.25;74.29;101852.19;5021180;28;20018;-88
2023/04/26 05:09:32;;;;;;;17.52;6.75;;;;;;;3.32;74.37;101858.34;5023861;28;20345;-88
2023/04/26 05:11:57;;;;;;;16.08;7.10;;;;;;;3.32;74.60;101859.22;5021600;28;20021;-87
2023/04/26 05:14:22;;;;;;;13.00;6.10;;;;;;;3.36;74.95;101854.91;5024027;28;20434;-88
2023/04/26 05:16:48;;;;;;;17.20;7.85;;;;;;;3.37;74.49;101859.25;5023475;28;20042;-87
2023/04/26 05:19:13;;;;;;;29.17;8.60;;;;;;;3.48;74.81;101851.47;5007704;28;20034;-87
2023/04/26 05:21:38;;;;;;;15.75;7.20;;;;;;;3.65;74.25;101862.88;5000359;28;20036;-87
2023/04/26 05:24:04;;;;;;;18.35;7.20;;;;;;;3.69;74.04;101862.03;5026453;28;20049;-87
2023/04/26 05:26:29;;;;;;;17.77;7.55;;;;;;;3.77;73.98;101868.16;5021652;28;20028;-87
2023/04/26 05:28:54;;;;;;;16.73;7.78;;;;;;;3.79;74.08;101866.44;5007851;28;20013;-87
2023/04/26 05:31:20;;;;;;;17.10;7.30;;;;;;;3.92;73.78;101869.09;5005641;28;20417;-87
2023/04/26 05:33:45;;;;;;;19.73;7.68;;;;;;;3.89;73.48;101856.88;5023501;28;20040;-87
2023/04/26 05:36:11;;;;;;;16.58;8.13;;;;;;;4.00;73.41;101862.13;4996053;28;20025;-87
2023/04/26 05:38:36;;;;;;;16.58;7.65;;;;;;;3.98;73.88;101842.94;5019699;28;20493;-87
2023/04/26 05:41:02;;;;;;;16.08;8.07;;;;;;;4.10;73.51;101856.06;5023094;28;20036;-87
2023/04/26 05:43:28;;;;;;;15.77;8.07;;;;;;;4.11;73.69;101865.69;5026398;28;20473;-87
2023/04/26 05:45:54;;;;;;;16.00;7.47;;;;;;;4.17;73.85;101870.91;5009492;28;20018;-87
2023/04/26 05:48:21;;;;;;;17.42;8.10;;;;;;;4.22;73.87;101881.41;5021078;28;20026;-87
2023/04/26 05:50:47;;;;;;;17.02;8.98;;;;;;;4.26;73.35;101883.16;5022403;28;20034;-87
2023/04/26 05:53:13;;;;;;;20.90;8.45;;;;;;;4.28;73.66;101874.44;5026691;28;20504;-87
2023/04/26 05:55:40;;;;;;;19.63;7.55;;;;;;;4.34;73.97;101878.81;5010540;28;20029;-87
2023/04/26 05:58:06;;;;;;;16.73;7.65;;;;;;;4.47;73.84;101864.84;5005830;28;20405;-87
2023/04/26 06:00:32;;;;;;;17.40;8.48;;;;;;;4.55;73.61;101872.72;5025811;28;20022;-87
2023/04/26 06:02:57;;;;;;;16.38;8.95;;;;;;;4.65;73.67;101865.75;5011882;28;20500;-87
2023/04/26 06:05:22;;;;;;;19.35;9.23;;;;;;;4.71;73.10;101863.13;5021764;28;20123;-87
2023/04/26 06:07:47;;;;;;;21.58;9.65;;;;;;;4.80;73.03;101874.50;5011137;28;20025;-87
2023/04/26 06:10:13;;;;;;;21.30;9.65;;;;;;;4.93;73.15;101879.75;5020144;28;20048;-87
2023/04/26 06:12:38;;;;;;;17.15;9.25;;;;;;;5.05;72.93;101871.88;5023840;28;20041;-87
2023/04/26 06:15:04;;;;;;;16.83;9.40;;;;;;;5.26;72.47;101871.84;5009785;28;20389;-87
2023/04/26 06:17:29;;;;;;;17.52;8.80;;;;;;;5.45;71.65;101877.03;5016879;28;21522;-87
2023/04/26 06:19:55;;;;;;;20.83;10.10;;;;;;;5.59;71.52;101876.13;5021472;28;20041;-87
2023/04/26 06:22:20;;;;;;;18.33;9.55;;;;;;;5.66;71.29;101868.25;5004375;28;20025;-88
2023/04/26 06:24:45;;;;;;;16.48;8.57;;;;;;;5.79;71.68;101876.09;5027230;28;20029;-88
2023/04/26 06:27:11;;;;;;;20.42;8.98;;;;;;;5.99;71.38;101876.03;5011421;28;20029;-87
2023/04/26 06:29:36;;;;;;;17.83;8.93;;;;;;;6.08;70.37;101869.84;5011937;28;20494;-87
2023/04/26 06:32:01;;;;;;;17.13;8.77;;;;;;;6.26;71.33;101887.28;5016558;28;20040;-87
2023/04/26 06:34:27;;;;;;;23.20;9.48;;;;;;;6.28;70.23;101872.38;5023070;28;20153;-87
2023/04/26 06:36:52;;;;;;;19.33;8.70;;;;;;;6.43;70.31;101882.78;5014003;28;20874;-87
2023/04/26 06:39:18;;;;;;;14.50;8.38;;;;;;;6.62;70.16;101889.69;5020328;28;20022;-87
2023/04/26 06:41:43;;;;;;;20.20;8.18;;;;;;;6.83;70.05;101893.00;5015650;28;20104;-88
2023/04/26 06:44:08;;;;;;;17.17;8.30;;;;;;;6.94;69.49;101891.16;5021559;28;20377;-87
2023/04/26 06:46:33;;;;;;;16.48;8.13;;;;;;;6.98;69.12;101892.88;5008703;28;20037;-87
2023/04/26 06:49:00;;;;;;;13.52;7.60;;;;;;;7.07;68.34;101899.81;5020795;28;20025;-87
2023/04/26 06:51:25;;;;;;;17.63;7.95;;;;;;;7.23;69.47;101892.66;5004633;28;20018;-87
2023/04/26 06:53:51;;;;;;;18.48;8.07;;;;;;;7.32;68.92;101895.19;5025237;28;20033;-88
2023/04/26 06:56:17;;;;;;;19.55;7.55;;;;;;;7.42;68.25;101896.88;5002158;28;20079;-88
2023/04/26 06:58:58;;;;;;;16.20;7.82;;;;;;;7.62;68.67;101899.28;5003113;28;20033;-87
2023/04/26 07:01:23;;;;;;;15.07;6.78;;;;;;;7.58;68.35;101887.91;5018810;28;20072;-88
2023/04/26 07:03:48;;;;;;;14.90;7.10;;;;;;;7.71;67.60;101893.06;5029774;28;20017;-87
2023/04/26 07:06:13;;;;;;;12.30;6.25;;;;;;;7.78;67.62;101898.22;5026317;28;20336;-87
2023/04/26 07:08:39;;;;;;;12.43;6.65;;;;;;;7.89;67.24;101891.06;5020701;28;20047;-87
2023/04/26 07:11:09;;;;;;;15.02;6.53;;;;;;;7.90;66.27;101894.56;5029189;28;20415;-88
2023/04/26 07:13:34;;;;;;;13.23;6.75;;;;;;;8.09;65.98;101903.13;5013072;28;20040;-88
2023/04/26 07:16:00;;;;;;;14.88;6.78;;;;;;;8.20;65.79;101901.19;5026492;28;20053;-87
2023/04/26 07:18:25;;;;;;;14.85;6.45;;;;;;;8.31;64.57;101894.03;5006696;28;20498;-87
2023/04/26 07:20:51;;;;;;;13.05;6.28;;;;;;;8.46;64.46;101905.28;5023036;28;20041;-87
2023/04/26 07:23:16;;;;;;;18.08;6.95;;;;;;;8.42;64.43;101896.53;5029140;28;20118;-87
2023/04/26 07:25:41;;;;;;;19.35;6.93;;;;;;;8.55;64.13;101899.88;5011465;28;20033;-87
2023/04/26 07:28:07;;;;;;;11.95;5.50;;;;;;;8.64;62.92;101902.38;5026953;28;20404;-87
2023/04/26 07:30:32;;;;;;;13.85;5.90;;;;;;;8.87;62.80;101902.91;5026599;28;20053;-87
2023/04/26 07:32:58;;;;;;;11.65;5.80;;;;;;;8.93;62.21;101900.16;5020617;28;20073;-87
2023/04/26 07:35:23;;;;;;;16.27;7.07;;;;;;;8.75;61.23;101889.03;5027661;28;20064;-88
2023/04/26 07:37:48;;;;;;;10.27;5.38;;;;;;;8.68;61.55;101893.53;5004601;28;20034;-87
2023/04/26 07:40:14;;;;;;;10.13;5.32;;;;;;;8.98;59.99;101899.22;5013319;28;20525;-87
2023/04/26 07:42:39;;;;;;;8.90;4.70;;;;;;;9.36;60.02;101891.47;5020966;28;20044;-88
2023/04/26 07:45:05;;;;;;;4.95;3.40;;;;;;;9.48;58.09;101900.09;5024469;28;20048;-88
2023/04/26 07:47:30;;;;;;;8.85;4.30;;;;;;;9.65;57.92;101898.88;5022125;28;20116;-87
2023/04/26 07:49:56;;;;;;;12.02;3.88;;;;;;;9.79;56.65;101884.50;5010146;28;20105;-88
2023/04/26 07:52:21;;;;;;;9.77;4.07;;;;;;;9.77;55.91;101883.69;5020871;28;20029;-87
2023/04/26 07:54:47;;;;;;;8.55;3.72;;;;;;;9.86;55.02;101888.78;5004876;28;20083;-88
2023/04/26 07:57:12;;;;;;;6.55;3.42;;;;;;;10.08;55.59;101890.09;5021852;28;20028;-88
2023/04/26 07:59:37;;;;;;;7.53;4.40;;;;;;;10.34;55.11;101884.25;5028531;28;20072;-87
2023/04/26 08:02:03;;;;;;;16.10;3.85;;;;;;;10.51;55.15;101881.22;5009427;28;20033;-87
2023/04/26 08:04:33;;;;;;;5.05;2.30;;;;;;;10.83;52.64;101895.47;5027422;28;20026;-88
2023/04/26 08:07:01;;;;;;;8.13;3.00;;;;;;;11.22;51.51;101890.94;5018637;28;20045;-87
2023/04/26 08:09:27;;;;;;;7.03;2.67;;;;;;;11.56;51.55;101903.28;5022769;28;20402;-87
2023/04/26 08:11:53;;;;;;;6.53;1.60;;;;;;;11.55;49.30;101898.91;5024862;28;20028;-87
2023/04/26 08:14:18;;;;;;;7.32;1.42;;;;;;;11.57;48.62;101900.59;5025752;28;20461;-88
2023/04/26 08:16:44;;;;;;;7.85;2.05;;;;;;;11.57;48.35;101905.03;5009466;28;20088;-87
2023/04/26 08:19:10;;;;;;;2.83;2.38;;;;;;;11.58;48.92;101904.97;5025432;28;20025;-87
2023/04/26 08:21:36;;;;;;;5.03;2.10;;;;;;;12.09;48.33;101904.44;5012167;28;20136;-87
2023/04/26 08:24:02;;;;;;;7.55;2.50;;;;;;;12.40;48.13;101898.22;5025708;28;20104;-87
2023/04/26 08:26:27;;;;;;;4.93;2.05;;;;;;;11.80;46.62;101907.03;5024026;28;20075;-87
2023/04/26 08:28:53;;;;;;;6.57;2.08;;;;;;;11.45;47.96;101901.78;5025101;28;20633;-88
2023/04/26 08:31:18;;;;;;;3.80;1.98;;;;;;;11.53;46.90;101900.72;5007771;28;20025;-88
2023/04/26 08:33:43;;;;;;;4.35;1.73;;;;;;;11.47;46.37;101896.44;5008590;28;20501;-88
2023/04/26 08:36:09;;;;;;;2.25;1.00;;;;;;;11.53;46.74;101895.44;5025017;28;20124;-87
2023/04/26 08:38:35;;;;;;;6.30;1.50;;;;;;;11.59;44.51;101900.56;5026009;28;20029;-87
2023/04/26 08:41:03;;;;;;;1.88;1.30;;;;;;;11.94;45.07;101905.78;5030468;28;20029;-87
2023/04/26 08:43:28;;;;;;;3.90;1.25;;;;;;;12.36;43.59;101896.59;5027237;28;20155;-87
2023/04/26 08:45:57;;;;;;;3.58;1.98;;;;;;;12.71;45.56;101893.69;5010395;28;20466;-87
2023/04/26 08:48:22;;;;;;;4.35;1.98;;;;;;;12.77;44.39;101897.91;5026669;28;20139;-87
2023/04/26 08:50:49;;;;;;;5.90;1.63;;;;;;;12.34;44.98;101893.97;5028468;28;20108;-88
2023/04/26 08:53:18;;;;;;;7.22;2.13;;;;;;;12.12;44.51;101895.53;5003362;28;20041;-88
2023/04/26 08:55:48;;;;;;;4.75;1.80;;;;;;;11.79;44.09;101890.25;5027987;28;20036;-88
2023/04/26 08:58:13;;;;;;;8.38;2.55;;;;;;;11.34;45.28;101901.22;5031143;28;20452;-87
2023/04/26 09:00:41;;;;;;;7.30;2.05;;;;;;;11.27;47.91;101886.38;5010441;28;20049;-88
2023/04/26 09:03:06;;;;;;;5.65;2.53;;;;;;;11.56;46.05;101898.84;5022090;28;20842;-87
2023/04/26 09:05:33;;;;;;;7.75;2.80;;;;;;;12.03;46.45;101885.19;5027813;28;20029;-87
2023/04/26 09:08:06;;;;;;;5.35;2.75;;;;;;;13.18;44.98;101890.38;5028900;28;20026;-87
2023/04/26 09:10:31;;;;;;;6.35;2.35;;;;;;;14.37;41.21;101894.00;5023042;28;20037;-86
2023/04/26 09:12:57;;;;;;;5.40;2.55;;;;;;;15.72;40.57;101880.41;5028411;28;20034;-87
2023/04/26 09:15:24;;;;;;;4.60;2.97;;;;;;;17.15;36.54;101880.63;5020100;28;20102;-87
2023/04/26 09:17:50;;;;;;;6.68;2.38;;;;;;;17.71;35.71;101879.47;5024847;28;20504;-87
2023/04/26 09:38:41;;;;;;;8.10;2.58;;;;;;;14.56;41.03;101878.22;5164250;27;20399;-88
2023/04/26 09:41:06;;;;;;;9.70;2.42;;;;;;;14.39;40.04;101880.63;5125415;27;20039;-87
2023/04/26 09:43:36;;;;;;;7.13;2.38;;;;;;;13.92;40.31;101878.00;5128157;27;20106;-87
2023/04/26 09:46:01;;;;;;;4.72;2.05;;;;;;;13.59;40.70;101882.78;5129632;27;20019;-87
2023/04/26 09:48:33;;;;;;;3.65;1.98;;;;;;;13.40;41.60;101888.75;5124605;27;20507;-87
2023/04/26 09:51:10;;;;;;;5.70;2.60;;;;;;;13.24;42.60;101882.22;5124383;27;20059;-87
2023/04/26 09:53:38;;;;;;;5.05;2.42;;;;;;;13.20;44.01;101881.44;5123533;27;20038;-87
2023/04/26 09:56:17;;;;;;;4.93;2.30;;;;;;;13.32;43.59;101881.97;5128122;27;20518;-86
2023/04/26 09:58:42;;;;;;;5.63;2.10;;;;;;;13.27;42.28;101883.00;5124555;27;20027;-87
2023/04/26 10:01:12;;;;;;;4.07;2.70;;;;;;;13.04;41.89;101874.91;5124264;27;20305;-86
2023/04/26 10:03:39;;;;;;;6.50;2.55;;;;;;;12.97;42.75;101884.00;5125486;27;20288;-86
2023/04/26 10:06:04;;;;;;;5.68;3.15;;;;;;;12.96;42.77;101884.91;5127887;27;20020;-86
2023/04/26 10:08:31;;;;;;;4.63;2.50;;;;;;;13.01;41.97;101875.03;5125062;27;20477;-86
2023/04/26 10:10:57;;;;;;;6.15;2.65;;;;;;;13.06;42.85;101878.41;5124892;27;20481;-86
2023/04/26 10:13:22;;;;;;;4.95;2.45;;;;;;;13.09;41.94;101875.63;5123357;27;20030;-86
2023/04/26 10:15:48;;;;;;;6.53;3.05;;;;;;;13.00;42.76;101881.25;5123830;27;20022;-86
2023/04/26 10:18:13;;;;;;;4.43;2.50;;;;;;;13.00;43.58;101868.81;5121858;27;20109;-87
2023/04/26 10:20:45;;;;;;;3.80;2.65;;;;;;;13.05;44.13;101887.25;5126898;27;20134;-87
2023/04/26 10:23:19;;;;;;;5.10;2.80;;;;;;;12.98;43.40;101891.06;5126161;27;20027;-87
2023/04/26 10:25:45;;;;;;;4.28;2.65;;;;;;;12.45;41.41;101888.31;5125523;27;20023;-87
2023/04/26 10:28:10;;;;;;;6.78;3.17;;;;;;;12.18;43.41;101885.63;5123033;27;20031;-87
2023/04/26 10:30:57;;;;;;;5.38;3.10;;;;;;;12.17;43.76;101881.25;5139731;27;20031;-87
2023/04/26 10:33:23;;;;;;;6.68;2.85;;;;;;;12.28;43.70;101883.56;5130135;27;20155;-87
2023/04/26 10:36:12;;;;;;;5.97;3.13;;;;;;;12.16;44.57;101875.97;5121253;27;20076;-87
2023/04/26 10:38:40;;;;;;;4.47;2.60;;;;;;;12.19;43.51;101875.88;5107658;27;20028;-88
2023/04/26 10:41:36;;;;;;;5.72;2.78;;;;;;;12.08;43.39;101885.94;5109838;27;20351;-87
2023/04/26 10:44:37;;;;;;;6.32;2.97;;;;;;;11.81;44.90;101877.00;5108152;28;20028;-87
2023/04/26 10:47:05;;;;;;;5.47;3.33;;;;;;;12.09;44.28;101862.03;5111218;28;20534;-87
2023/04/26 10:49:44;;;;;;;4.60;2.40;;;;;;;12.46;43.26;101867.06;5109679;28;20081;-87
2023/04/26 10:52:11;;;;;;;8.10;2.83;;;;;;;12.64;43.42;101867.41;5122416;27;20088;-87
2023/04/26 10:54:45;;;;;;;6.97;2.70;;;;;;;12.64;40.47;101862.97;5104072;28;20434;-87
2023/04/26 10:57:11;;;;;;;4.82;2.50;;;;;;;12.40;40.04;101863.72;5108559;28;20039;-87
2023/04/26 10:59:36;;;;;;;5.47;2.58;;;;;;;12.48;41.48;101869.69;5110489;27;20023;-87
2023/04/26 11:02:01;;;;;;;4.70;2.42;;;;;;;12.56;41.69;101865.00;5106748;28;20432;-87
2023/04/26 11:04:50;;;;;;;4.32;2.70;;;;;;;12.85;42.78;101871.13;5110119;27;20474;-87
2023/04/26 11:07:34;;;;;;;10.40;2.72;;;;;;;12.82;40.53;101857.97;5103496;28;20016;-86
2023/04/26 11:09:59;;;;;;;7.40;3.00;;;;;;;13.04;41.77;101864.28;5103895;28;20031;-87
2023/04/26 11:12:25;;;;;;;7.63;3.35;;;;;;;13.21;41.59;101861.94;5104472;27;20084;-86
2023/04/26 11:14:52;;;;;;;5.88;2.88;;;;;;;13.56;40.44;101862.50;5101066;27;20016;-87
2023/04/26 11:17:17;;;;;;;3.53;2.72;;;;;;;13.41;38.69;101853.28;5105354;28;20034;-88
2023/04/26 11:19:46;;;;;;;8.50;3.10;;;;;;;13.44;41.27;101849.66;5106892;28;20035;-88
2023/04/26 11:22:11;;;;;;;6.63;3.10;;;;;;;14.00;39.17;101850.22;5103463;28;20032;-87
2023/04/26 11:24:37;;;;;;;5.55;3.30;;;;;;;14.53;39.11;101843.72;5106746;28;20023;-87
2023/04/26 11:27:10;;;;;;;4.65;2.63;;;;;;;15.22;38.35;101847.03;5119089;27;20386;-87
2023/04/26 11:29:36;;;;;;;9.13;3.15;;;;;;;15.57;36.78;101839.25;5108232;28;20032;-87
2023/04/26 11:32:02;;;;;;;5.75;2.88;;;;;;;15.85;35.93;101841.56;5111453;28;20027;-87
2023/04/26 11:34:35;;;;;;;5.45;3.33;;;;;;;15.57;36.13;101834.81;5110895;28;20532;-88
2023/04/26 11:37:01;;;;;;;4.65;3.05;;;;;;;15.40;38.06;101828.50;5113184;27;20074;-88
2023/04/26 11:39:26;;;;;;;7.72;3.38;;;;;;;15.44;37.28;101820.31;5113029;28;20023;-88
2023/04/26 11:42:08;;;;;;;6.38;3.15;;;;;;;15.60;37.44;101820.47;5111929;27;20057;-88